createdAt,value
2017-07-07T00:01:08.860Z,8.10
2017-07-07T00:03:35.250Z,8.00
2017-07-07T00:06:01.647Z,8.23
2017-07-07T00:08:28.044Z,7.93
2017-07-07T00:10:55.181Z,7.80
2017-07-07T00:13:22.353Z,8.10
2017-07-07T00:15:48.736Z,7.60
2017-07-07T00:18:15.113Z,7.80
2017-07-07T00:20:41.568Z,8.17
2017-07-07T00:23:07.939Z,9.10
2017-07-07T00:25:34.473Z,8.60
2017-07-07T00:28:00.853Z,6.90
2017-07-07T00:30:27.247Z,7.10
2017-07-07T00:32:53.661Z,7.20
2017-07-07T00:35:20.056Z,7.13
2017-07-07T00:37:46.475Z,8.00
2017-07-07T00:40:12.899Z,8.70
2017-07-07T00:42:40.021Z,8.13
2017-07-07T00:45:06.431Z,8.50
2017-07-07T00:47:32.819Z,7.83
2017-07-07T00:49:59.248Z,7.60
2017-07-07T00:52:26.378Z,9.40
2017-07-07T00:54:52.821Z,8.90
2017-07-07T00:57:20.395Z,7.97
2017-07-07T00:59:46.782Z,7.97
2017-07-07T01:02:13.168Z,8.30
2017-07-07T01:04:39.584Z,8.57
2017-07-07T01:07:06.720Z,8.40
2017-07-07T01:09:33.081Z,7.57
2017-07-07T01:11:59.487Z,8.33
2017-07-07T01:14:26.645Z,7.70
2017-07-07T01:16:53.796Z,9.40
2017-07-07T01:19:20.951Z,7.83
2017-07-07T01:21:47.333Z,7.50
2017-07-07T01:24:13.744Z,8.40
2017-07-07T01:26:40.112Z,6.93
2017-07-07T01:29:06.496Z,9.00
2017-07-07T01:31:32.915Z,8.77
2017-07-07T01:33:59.324Z,8.33
2017-07-07T01:36:26.492Z,7.87
2017-07-07T01:38:53.695Z,9.10
2017-07-07T01:41:20.109Z,7.97
2017-07-07T01:43:46.523Z,7.83
2017-07-07T01:46:12.948Z,8.90
2017-07-07T01:48:39.375Z,7.50
2017-07-07T01:51:06.539Z,8.43
2017-07-07T01:53:32.980Z,7.67
2017-07-07T01:55:59.400Z,9.43
2017-07-07T01:58:25.945Z,7.33
2017-07-07T02:00:52.377Z,6.90
2017-07-07T02:03:18.776Z,8.90
2017-07-07T02:05:45.191Z,8.13
2017-07-07T02:08:11.573Z,8.27
2017-07-07T02:10:38.133Z,8.00
2017-07-07T02:13:11.392Z,8.90
2017-07-07T02:15:37.949Z,10.07
2017-07-07T02:18:04.392Z,8.13
2017-07-07T02:20:30.789Z,8.47
2017-07-07T02:22:57.940Z,8.20
2017-07-07T02:25:25.057Z,9.10
2017-07-07T02:27:51.456Z,8.30
2017-07-07T02:30:17.881Z,8.60
2017-07-07T02:32:44.317Z,7.40
2017-07-07T02:35:10.724Z,8.70
2017-07-07T02:37:37.119Z,9.23
2017-07-07T02:40:03.560Z,8.43
2017-07-07T02:42:29.984Z,8.90
2017-07-07T02:44:56.364Z,8.23
2017-07-07T02:47:22.757Z,8.67
2017-07-07T02:49:49.930Z,8.20
2017-07-07T02:52:17.045Z,8.77
2017-07-07T02:54:43.444Z,8.50
2017-07-07T02:57:09.852Z,8.70
2017-07-07T02:59:36.392Z,8.40
2017-07-07T03:02:02.764Z,8.80
2017-07-07T03:04:29.157Z,7.87
2017-07-07T03:06:55.565Z,8.30
2017-07-07T03:09:22.709Z,8.73
2017-07-07T03:11:49.871Z,8.73
2017-07-07T03:14:17.024Z,9.00
2017-07-07T03:16:44.149Z,7.90
2017-07-07T03:19:10.588Z,7.80
2017-07-07T03:21:36.976Z,8.37
2017-07-07T03:24:03.383Z,7.80
2017-07-07T03:26:29.763Z,8.23
2017-07-07T03:28:56.176Z,8.90
2017-07-07T03:31:22.564Z,8.63
2017-07-07T03:33:49.936Z,8.63
2017-07-07T03:36:16.336Z,9.00
2017-07-07T03:38:43.451Z,8.80
2017-07-07T03:41:09.874Z,8.60
2017-07-07T03:43:36.254Z,8.80
2017-07-07T03:46:02.664Z,9.50
2017-07-07T03:48:29.100Z,8.77
2017-07-07T03:50:55.530Z,9.30
2017-07-07T03:53:21.925Z,8.70
2017-07-07T03:55:48.321Z,9.30
2017-07-07T03:58:15.697Z,9.93
2017-07-07T04:00:42.092Z,10.00
2017-07-07T04:03:08.484Z,10.80
2017-07-07T04:05:34.901Z,10.13
2017-07-07T04:08:01.280Z,9.40
2017-07-07T04:10:27.821Z,9.20
2017-07-07T04:12:54.217Z,8.70
2017-07-07T04:15:20.600Z,9.53
2017-07-07T04:17:47.772Z,10.20
2017-07-07T04:20:14.194Z,10.20
2017-07-07T04:22:41.312Z,9.40
2017-07-07T04:25:07.708Z,10.60
2017-07-07T04:27:34.093Z,9.53
2017-07-07T04:30:16.350Z,8.73
2017-07-07T04:32:42.741Z,9.80
2017-07-07T04:35:09.876Z,10.03
2017-07-07T04:37:37.031Z,9.20
2017-07-07T04:40:04.322Z,9.67
2017-07-07T04:42:30.837Z,9.73
2017-07-07T04:44:57.227Z,9.90
2017-07-07T04:47:23.629Z,10.70
2017-07-07T04:49:50.076Z,9.83
2017-07-07T04:52:16.472Z,10.53
2017-07-07T04:54:42.899Z,10.03
2017-07-07T04:57:09.292Z,10.07
2017-07-07T04:59:35.705Z,11.33
2017-07-07T05:02:02.101Z,10.33
2017-07-07T05:04:28.535Z,10.27
2017-07-07T05:06:54.927Z,11.07
2017-07-07T05:09:21.327Z,9.57
2017-07-07T05:11:47.752Z,10.80
2017-07-07T05:14:14.152Z,9.37
2017-07-07T05:16:40.560Z,11.93
2017-07-07T05:19:06.969Z,11.50
2017-07-07T05:21:33.513Z,9.60
2017-07-07T05:23:59.885Z,10.70
2017-07-07T05:26:27.009Z,10.77
2017-07-07T05:28:53.425Z,12.03
2017-07-07T05:31:19.872Z,9.87
2017-07-07T05:33:46.260Z,11.33
2017-07-07T05:36:12.674Z,11.33
2017-07-07T05:38:39.109Z,11.30
2017-07-07T05:41:05.491Z,9.63
2017-07-07T05:43:31.997Z,10.90
2017-07-07T05:45:58.369Z,10.30
2017-07-07T05:48:24.760Z,10.03
2017-07-07T05:50:51.200Z,10.60
2017-07-07T05:53:17.620Z,10.80
2017-07-07T05:55:44.024Z,10.63
2017-07-07T05:58:11.180Z,10.77
2017-07-07T06:00:37.652Z,10.50
2017-07-07T06:03:04.093Z,10.17
2017-07-07T06:05:30.489Z,10.83
2017-07-07T06:07:56.875Z,11.10
2017-07-07T06:10:23.289Z,10.60
2017-07-07T06:12:49.811Z,10.83
2017-07-07T06:15:16.257Z,9.43
2017-07-07T06:17:42.425Z,8.50
2017-07-07T06:20:09.476Z,10.50
2017-07-07T06:22:35.879Z,10.40
2017-07-07T06:25:02.304Z,12.50
2017-07-07T06:27:28.716Z,12.23
2017-07-07T06:29:55.121Z,10.87
2017-07-07T06:32:22.768Z,9.70
2017-07-07T06:34:49.191Z,11.37
2017-07-07T06:37:15.570Z,14.70
2017-07-07T06:39:42.004Z,12.70
2017-07-07T06:42:08.400Z,10.47
2017-07-07T06:44:35.549Z,7.77
2017-07-07T06:47:02.856Z,10.10
2017-07-07T06:49:29.590Z,10.37
2017-07-07T06:51:56.041Z,12.27
2017-07-07T06:54:22.469Z,13.40
2017-07-07T06:56:49.036Z,12.23
2017-07-07T06:59:16.186Z,10.37
2017-07-07T07:01:43.329Z,12.00
2017-07-07T07:04:10.500Z,10.57
2017-07-07T07:06:36.916Z,10.13
2017-07-07T07:09:04.097Z,10.27
2017-07-07T07:11:30.517Z,12.13
2017-07-07T07:14:12.705Z,11.00
2017-07-07T07:16:39.095Z,10.73
2017-07-07T07:19:05.496Z,21.20
2017-07-07T07:21:32.017Z,13.00
2017-07-07T07:23:59.128Z,10.30
2017-07-07T07:26:25.529Z,10.83
2017-07-07T07:28:51.969Z,11.00
2017-07-07T07:31:18.416Z,9.67
2017-07-07T07:33:44.853Z,9.80
2017-07-07T07:36:11.237Z,9.90
2017-07-07T07:38:37.624Z,10.40
2017-07-07T07:41:04.020Z,9.57
2017-07-07T07:43:30.443Z,9.47
2017-07-07T07:45:56.895Z,9.37
2017-07-07T07:48:23.285Z,9.43
2017-07-07T07:50:50.455Z,9.77
2017-07-07T07:53:16.848Z,9.43
2017-07-07T07:55:43.231Z,11.10
2017-07-07T07:58:09.668Z,10.33
2017-07-07T08:00:36.098Z,11.00
2017-07-07T08:03:02.503Z,10.63
2017-07-07T08:05:29.677Z,9.23
2017-07-07T08:07:56.068Z,9.07
2017-07-07T08:10:23.208Z,8.47
2017-07-07T08:12:49.631Z,9.90
2017-07-07T08:15:17.001Z,8.90
2017-07-07T08:17:43.389Z,10.03
2017-07-07T08:20:09.780Z,11.63
2017-07-07T08:22:37.045Z,10.40
2017-07-07T08:25:04.181Z,9.97
2017-07-07T08:27:31.311Z,9.70
2017-07-07T08:29:57.736Z,9.63
2017-07-07T08:32:24.122Z,9.17
2017-07-07T08:34:50.520Z,9.00
2017-07-07T08:37:17.664Z,9.03
2017-07-07T08:39:44.086Z,9.50
2017-07-07T08:42:10.505Z,8.20
2017-07-07T08:44:36.885Z,8.80
2017-07-07T08:47:03.312Z,8.60
2017-07-07T08:49:30.448Z,8.50
2017-07-07T08:51:56.852Z,8.37
2017-07-07T08:54:23.440Z,8.20
2017-07-07T08:56:49.833Z,8.40
2017-07-07T08:59:16.212Z,8.50
2017-07-07T09:01:42.647Z,8.10
2017-07-07T09:04:09.212Z,10.03
2017-07-07T09:06:35.613Z,8.53
2017-07-07T09:09:02.036Z,10.23
2017-07-07T09:11:28.445Z,9.27
2017-07-07T09:13:55.581Z,8.03
2017-07-07T09:16:21.983Z,8.80
2017-07-07T09:18:48.405Z,8.83
2017-07-07T09:21:14.805Z,9.47
2017-07-07T09:23:41.936Z,9.30
2017-07-07T09:26:08.336Z,9.27
2017-07-07T09:28:34.728Z,9.30
2017-07-07T09:31:01.881Z,9.03
2017-07-07T09:33:28.340Z,9.43
2017-07-07T09:35:54.960Z,8.07
2017-07-07T09:38:21.353Z,8.37
2017-07-07T09:40:47.741Z,7.90
2017-07-07T09:43:14.560Z,8.10
2017-07-07T09:45:40.943Z,7.70
2017-07-07T09:48:07.373Z,8.43
2017-07-07T09:50:33.807Z,7.87
2017-07-07T09:53:00.580Z,8.20
2017-07-07T09:55:27.224Z,8.20
2017-07-07T09:57:53.764Z,8.50
2017-07-07T10:00:20.330Z,7.43
2017-07-07T10:02:48.074Z,8.63
2017-07-07T10:05:14.473Z,7.50
2017-07-07T10:07:40.943Z,9.50
2017-07-07T10:10:07.476Z,8.00
2017-07-07T10:12:33.989Z,8.10
2017-07-07T10:15:00.516Z,7.07
2017-07-07T10:17:26.933Z,7.37
2017-07-07T10:19:53.337Z,7.60
2017-07-07T10:22:19.715Z,6.97
2017-07-07T10:24:46.900Z,7.63
2017-07-07T10:27:13.276Z,7.40
2017-07-07T10:29:39.677Z,7.47
2017-07-07T10:32:06.105Z,8.27
2017-07-07T10:34:32.532Z,7.53
2017-07-07T10:36:58.912Z,8.17
2017-07-07T10:39:25.456Z,8.30
2017-07-07T10:41:52.941Z,7.97
2017-07-07T10:44:19.336Z,8.30
2017-07-07T10:46:46.016Z,7.80
2017-07-07T10:49:12.400Z,8.30
2017-07-07T10:51:38.789Z,7.60
2017-07-07T10:54:05.229Z,7.20
2017-07-07T10:56:31.616Z,6.80
2017-07-07T10:58:58.036Z,7.17
2017-07-07T11:01:24.452Z,8.13
2017-07-07T11:03:50.845Z,7.00
2017-07-07T11:06:17.286Z,7.03
2017-07-07T11:08:43.664Z,7.37
2017-07-07T11:11:10.048Z,6.67
2017-07-07T11:13:36.448Z,5.60
2017-07-07T11:16:02.856Z,5.53
2017-07-07T11:18:29.256Z,5.70
2017-07-07T11:21:10.568Z,5.40
2017-07-07T11:23:37.148Z,5.87
2017-07-07T11:26:03.532Z,5.73
2017-07-07T11:28:29.913Z,6.30
2017-07-07T11:30:56.327Z,5.50
2017-07-07T11:33:22.744Z,7.20
2017-07-07T11:35:49.158Z,7.03
2017-07-07T11:38:15.600Z,6.97
2017-07-07T11:40:42.388Z,7.33
2017-07-07T11:43:08.826Z,8.90
2017-07-07T11:45:35.209Z,8.60
2017-07-07T11:48:01.624Z,8.20
2017-07-07T11:50:28.237Z,8.50
2017-07-07T11:52:55.582Z,9.50
2017-07-07T11:55:22.298Z,8.80
2017-07-07T11:57:48.811Z,8.13
2017-07-07T12:00:16.453Z,8.47
2017-07-07T12:02:42.928Z,8.53
2017-07-07T12:05:09.499Z,9.13
2017-07-07T12:07:35.973Z,10.27
2017-07-07T12:10:02.582Z,10.57
2017-07-07T12:12:29.101Z,11.07
2017-07-07T12:14:55.576Z,11.40
2017-07-07T12:17:22.170Z,11.47
2017-07-07T12:19:48.626Z,11.30
2017-07-07T12:22:15.264Z,10.20
2017-07-07T12:24:41.849Z,11.10
2017-07-07T12:27:08.313Z,10.60
2017-07-07T12:29:34.717Z,9.60
2017-07-07T12:32:01.902Z,9.80
2017-07-07T12:34:28.337Z,8.80
2017-07-07T12:36:54.760Z,8.37
2017-07-07T12:39:21.186Z,9.63
2017-07-07T12:41:47.593Z,9.20
2017-07-07T12:44:14.789Z,9.30
2017-07-07T12:46:41.164Z,8.80
2017-07-07T12:49:07.594Z,9.37
2017-07-07T12:51:33.989Z,9.63
2017-07-07T12:54:00.393Z,9.27
2017-07-07T12:56:26.919Z,11.10
2017-07-07T12:58:54.040Z,8.80
2017-07-07T13:01:20.809Z,9.50
2017-07-07T13:03:47.468Z,10.17
2017-07-07T13:06:13.880Z,10.00
2017-07-07T13:08:41.081Z,9.07
2017-07-07T13:11:15.216Z,9.30
2017-07-07T13:13:41.641Z,9.60
2017-07-07T13:16:08.077Z,10.07
2017-07-07T13:18:34.464Z,9.73
2017-07-07T13:21:00.861Z,9.43
2017-07-07T13:23:28.011Z,8.73
2017-07-07T13:25:54.392Z,9.70
2017-07-07T13:28:20.809Z,10.67
2017-07-07T13:30:47.205Z,10.00
2017-07-07T13:33:14.584Z,9.27
2017-07-07T13:35:40.976Z,11.30
2017-07-07T13:38:07.344Z,9.37
2017-07-07T13:40:33.781Z,9.83
2017-07-07T13:43:00.228Z,10.77
2017-07-07T13:45:26.617Z,10.40
2017-07-07T13:47:53.000Z,10.40
2017-07-07T13:50:19.419Z,10.43
2017-07-07T13:52:45.797Z,9.80
2017-07-07T13:55:12.208Z,11.00
2017-07-07T13:57:38.625Z,11.20
2017-07-07T14:00:05.013Z,10.93
2017-07-07T14:02:31.426Z,9.30
2017-07-07T14:04:57.868Z,8.63
2017-07-07T14:07:24.271Z,7.07
2017-07-07T14:09:50.705Z,6.53
2017-07-07T14:12:17.108Z,6.60
2017-07-07T14:14:43.528Z,6.43
2017-07-07T14:17:10.684Z,5.13
2017-07-07T14:19:37.070Z,5.90
2017-07-07T14:22:03.503Z,4.90
2017-07-07T14:24:29.924Z,4.90
2017-07-07T14:26:56.373Z,5.50
2017-07-07T14:29:22.771Z,5.00
2017-07-07T14:31:49.201Z,5.67
2017-07-07T14:34:15.678Z,8.13
2017-07-07T14:36:42.085Z,8.93
2017-07-07T14:39:08.486Z,9.60
2017-07-07T14:41:35.169Z,6.57
2017-07-07T14:44:02.333Z,8.33
2017-07-07T14:46:28.833Z,7.20
2017-07-07T14:48:55.263Z,7.53
2017-07-07T14:51:21.653Z,7.90
2017-07-07T14:53:48.105Z,7.57
2017-07-07T14:56:14.487Z,7.10
2017-07-07T14:58:40.908Z,6.30
2017-07-07T15:01:07.296Z,5.57
2017-07-07T15:03:33.689Z,5.20
2017-07-07T15:06:00.108Z,4.60
2017-07-07T15:08:26.557Z,4.67
2017-07-07T15:10:52.977Z,3.73
2017-07-07T15:13:19.362Z,3.97
2017-07-07T15:15:45.785Z,3.70
2017-07-07T15:18:12.181Z,3.73
2017-07-07T15:20:38.565Z,3.20
2017-07-07T15:23:05.007Z,3.37
2017-07-07T15:25:31.401Z,3.23
2017-07-07T15:27:58.553Z,3.90
2017-07-07T15:30:24.957Z,3.60
2017-07-07T15:32:51.459Z,3.60
2017-07-07T15:35:17.876Z,3.23
2017-07-07T15:37:44.564Z,3.63
2017-07-07T15:40:11.792Z,3.67
2017-07-07T15:42:38.197Z,3.13
2017-07-07T15:45:04.637Z,3.50
2017-07-07T15:47:31.028Z,3.60
2017-07-07T15:49:57.425Z,4.10
2017-07-07T15:52:23.917Z,3.67
2017-07-07T15:54:50.356Z,3.57
2017-07-07T15:57:16.780Z,4.07
2017-07-07T15:59:43.920Z,3.90
2017-07-07T16:02:10.355Z,4.40
2017-07-07T16:04:36.805Z,3.50
2017-07-07T16:07:03.196Z,3.90
2017-07-07T16:09:29.626Z,4.10
2017-07-07T16:11:56.020Z,4.10
2017-07-07T16:14:22.413Z,4.70
2017-07-07T16:16:48.822Z,3.83
2017-07-07T16:19:15.201Z,4.40
2017-07-07T16:21:41.645Z,4.10
2017-07-07T16:24:08.041Z,4.20
2017-07-07T16:26:34.431Z,4.13
2017-07-07T16:29:00.847Z,4.53
2017-07-07T16:31:27.284Z,4.10
2017-07-07T16:33:53.677Z,4.07
2017-07-07T16:36:20.848Z,3.83
2017-07-07T16:38:47.309Z,4.30
2017-07-07T16:41:13.701Z,4.70
2017-07-07T16:43:40.907Z,4.20
2017-07-07T16:46:07.424Z,4.83
2017-07-07T16:48:33.814Z,4.73
2017-07-07T16:51:00.932Z,4.40
2017-07-07T16:53:27.461Z,4.63
2017-07-07T16:55:53.865Z,4.43
2017-07-07T16:58:20.281Z,4.90
2017-07-07T17:00:46.706Z,4.40
2017-07-07T17:03:13.125Z,4.07
2017-07-07T17:05:40.374Z,4.63
2017-07-07T17:08:07.484Z,4.00
2017-07-07T17:10:33.871Z,4.77
2017-07-07T17:13:00.300Z,4.90
2017-07-07T17:15:26.731Z,4.20
2017-07-07T17:17:53.126Z,4.30
2017-07-07T17:20:19.532Z,5.30
2017-07-07T17:22:45.919Z,3.93
2017-07-07T17:25:12.337Z,4.60
2017-07-07T17:27:38.725Z,3.73
2017-07-07T17:30:05.200Z,4.27
2017-07-07T17:32:31.713Z,4.00
2017-07-07T17:34:58.097Z,4.37
2017-07-07T17:37:25.213Z,4.40
2017-07-07T17:39:51.637Z,4.17
2017-07-07T17:42:18.068Z,4.27
2017-07-07T17:44:44.461Z,3.87
2017-07-07T17:47:10.886Z,4.60
2017-07-07T17:49:37.289Z,3.90
2017-07-07T17:52:03.676Z,4.33
2017-07-07T17:54:30.093Z,4.10
2017-07-07T17:56:56.532Z,6.10
2017-07-07T17:59:23.116Z,4.70
2017-07-07T18:01:49.528Z,4.57
2017-07-07T18:04:15.916Z,4.83
2017-07-07T18:06:42.325Z,4.33
2017-07-07T18:09:08.720Z,4.77
2017-07-07T18:11:35.148Z,5.50
2017-07-07T18:14:01.564Z,4.43
2017-07-07T18:16:27.969Z,5.60
2017-07-07T18:18:54.373Z,5.20
2017-07-07T18:21:20.765Z,4.93
2017-07-07T18:23:47.179Z,5.40
2017-07-07T18:26:13.819Z,4.60
2017-07-07T18:28:40.224Z,5.07
2017-07-07T18:31:07.880Z,4.73
2017-07-07T18:33:34.337Z,5.20
2017-07-07T18:36:00.725Z,5.67
2017-07-07T18:38:27.129Z,5.90
2017-07-07T18:40:53.520Z,5.20
2017-07-07T18:43:20.700Z,6.60
2017-07-07T18:45:47.109Z,5.80
2017-07-07T18:48:14.221Z,5.90
2017-07-07T18:50:40.658Z,5.90
2017-07-07T18:53:07.052Z,6.13
2017-07-07T18:55:33.447Z,5.57
2017-07-07T18:58:00.717Z,6.57
2017-07-07T19:00:27.101Z,7.10
2017-07-07T19:02:53.489Z,7.10
2017-07-07T19:05:20.019Z,6.23
2017-07-07T19:07:46.404Z,6.37
2017-07-07T19:10:12.804Z,6.13
2017-07-07T19:12:39.223Z,6.70
2017-07-07T19:15:05.616Z,7.70
2017-07-07T19:17:31.989Z,6.40
2017-07-07T19:19:58.621Z,8.37
2017-07-07T19:22:25.020Z,6.00
2017-07-07T19:24:52.208Z,6.33
2017-07-07T19:27:18.605Z,7.47
2017-07-07T19:29:44.977Z,6.67
2017-07-07T19:32:11.388Z,6.60
2017-07-07T19:34:38.593Z,7.00
2017-07-07T19:37:04.984Z,7.20
2017-07-07T19:39:31.403Z,6.60
2017-07-07T19:41:58.517Z,6.80
2017-07-07T19:44:24.924Z,7.10
2017-07-07T19:46:51.329Z,6.87
2017-07-07T19:49:17.780Z,7.73
2017-07-07T19:51:44.184Z,7.13
2017-07-07T19:54:10.602Z,7.43
2017-07-07T19:56:37.736Z,5.90
2017-07-07T19:59:04.136Z,6.40
2017-07-07T20:01:30.738Z,6.27
2017-07-07T20:03:57.160Z,7.00
2017-07-07T20:06:24.297Z,7.63
2017-07-07T20:08:50.716Z,7.10
2017-07-07T20:11:17.261Z,6.93
2017-07-07T20:13:43.716Z,6.87
2017-07-07T20:16:10.849Z,6.10
2017-07-07T20:18:37.297Z,7.03
2017-07-07T20:21:04.416Z,6.87
2017-07-07T20:23:30.836Z,6.70
2017-07-07T20:25:57.233Z,7.10
2017-07-07T20:28:23.644Z,7.67
2017-07-07T20:30:50.819Z,7.33
2017-07-07T20:33:17.239Z,7.40
2017-07-07T20:35:43.885Z,8.40
2017-07-07T20:38:10.293Z,7.17
2017-07-07T20:40:37.421Z,8.20
2017-07-07T20:43:03.856Z,8.97
2017-07-07T20:45:30.268Z,7.37
2017-07-07T20:47:56.685Z,8.20
2017-07-07T20:50:23.102Z,8.40
2017-07-07T20:52:49.492Z,7.47
2017-07-07T20:55:15.942Z,7.80
2017-07-07T20:57:42.313Z,7.90
2017-07-07T21:00:08.718Z,8.07
2017-07-07T21:02:35.136Z,7.67
2017-07-07T21:05:02.301Z,8.00
2017-07-07T21:07:28.728Z,8.40
2017-07-07T21:09:55.924Z,8.17
2017-07-07T21:12:22.349Z,8.10
2017-07-07T21:14:48.725Z,7.63
2017-07-07T21:17:15.317Z,7.77
2017-07-07T21:19:41.720Z,7.90
2017-07-07T21:22:08.104Z,6.63
2017-07-07T21:24:34.639Z,9.13
2017-07-07T21:27:01.020Z,9.27
2017-07-07T21:29:27.389Z,8.80
2017-07-07T21:31:53.890Z,9.27
2017-07-07T21:34:20.273Z,9.20
2017-07-07T21:36:46.684Z,8.23
2017-07-07T21:39:13.097Z,9.00
2017-07-07T21:41:39.557Z,8.23
2017-07-07T21:44:05.960Z,8.77
2017-07-07T21:46:32.376Z,9.60
2017-07-07T21:48:58.762Z,9.80
2017-07-07T21:51:25.143Z,9.40
2017-07-07T21:53:51.557Z,8.80
2017-07-07T21:56:18.941Z,9.00
2017-07-07T21:58:45.346Z,8.63
2017-07-07T22:01:12.472Z,9.10
2017-07-07T22:03:38.879Z,9.43
2017-07-07T22:06:05.296Z,9.13
2017-07-07T22:08:31.716Z,7.90
2017-07-07T22:10:58.096Z,9.10
2017-07-07T22:13:24.495Z,8.60
2017-07-07T22:15:50.881Z,9.53
2017-07-07T22:18:17.552Z,8.70
2017-07-07T22:20:44.669Z,9.03
2017-07-07T22:23:11.051Z,9.37
2017-07-07T22:25:37.449Z,9.20
2017-07-07T22:28:04.568Z,7.63
2017-07-07T22:30:31.129Z,9.13
2017-07-07T22:32:58.265Z,9.63
2017-07-07T22:35:24.652Z,10.20
2017-07-07T22:37:51.056Z,9.00
2017-07-07T22:40:17.484Z,10.07
2017-07-07T22:42:43.900Z,9.17
2017-07-07T22:45:10.341Z,9.10
2017-07-07T22:47:37.493Z,9.80
2017-07-07T22:50:04.657Z,11.07
2017-07-07T22:52:31.041Z,9.90
2017-07-07T22:54:57.728Z,10.57
2017-07-07T22:57:24.105Z,10.03
2017-07-07T22:59:50.505Z,10.60
2017-07-07T23:02:16.924Z,8.73
2017-07-07T23:04:43.308Z,10.60
2017-07-07T23:07:09.741Z,9.30
2017-07-07T23:09:36.137Z,9.57
2017-07-07T23:12:02.650Z,9.83
2017-07-07T23:14:29.047Z,9.87
2017-07-07T23:16:55.433Z,9.97
2017-07-07T23:19:21.836Z,9.73
2017-07-07T23:21:48.982Z,9.70
2017-07-07T23:24:16.248Z,9.00
2017-07-07T23:26:43.371Z,9.80
2017-07-07T23:29:09.757Z,9.53
2017-07-07T23:31:36.169Z,9.53
2017-07-07T23:34:02.565Z,8.60
2017-07-07T23:36:28.965Z,9.07
2017-07-07T23:38:55.656Z,8.10
2017-07-07T23:41:22.931Z,9.40
2017-07-07T23:43:49.341Z,8.30
2017-07-07T23:46:15.729Z,8.40
2017-07-07T23:48:42.137Z,8.63
2017-07-07T23:51:08.525Z,9.03
2017-07-07T23:53:34.924Z,8.77
2017-07-07T23:56:01.324Z,7.47
2017-07-07T23:58:27.704Z,7.30
